Time;durP1;ratioP1;P1;durP2;ratioP2;P2;SDS_P1;SDS_P2;PMS_P1;PMS_P2;Temp;Humidity;BMP_temperature;BMP_pressure;BME280_temperature;BME280_humidity;BME280_pressure;Samples;Min_cycle;Max_cycle;Signal;HPM_P1;HPM_P2
2023/04/07 00:01:28;;;;;;;;;;;7.70;99.90;;;;;;5111784;28;19919;-74
2023/04/07 00:03:54;;;;;;;;;;;7.70;99.90;;;;;;5111330;28;19924;-73
2023/04/07 00:06:20;;;;;;;;;;;7.70;99.90;;;;;;5093544;28;19919;-73
2023/04/07 00:08:45;;;;;;;;;;;7.70;99.90;;;;;;5093257;28;19919;-73
2023/04/07 00:11:11;;;;;;;;;;;7.70;99.90;;;;;;5111437;28;19920;-74
2023/04/07 00:13:36;;;;;;;;;;;7.70;99.90;;;;;;5111190;28;20377;-76
2023/04/07 00:16:02;;;;;;;;;;;7.70;99.90;;;;;;5093344;28;19920;-74
2023/04/07 00:18:27;;;;;;;;;;;7.70;99.90;;;;;;5093440;28;20015;-74
2023/04/07 00:20:53;;;;;;;;;;;7.80;99.90;;;;;;5110696;28;19962;-74
2023/04/07 00:23:18;;;;;;;;;;;7.70;99.90;;;;;;5110627;28;20007;-76
2023/04/07 00:25:46;;;;;;;;;;;7.70;99.90;;;;;;5111083;28;20014;-76
2023/04/07 00:28:12;;;;;;;;;;;7.70;99.90;;;;;;5092830;28;19962;-76
2023/04/07 00:30:37;;;;;;;;;;;7.70;99.90;;;;;;5092424;28;19975;-74
2023/04/07 00:33:03;;;;;;;;;;;7.70;99.90;;;;;;5111143;28;19938;-74
2023/04/07 00:35:28;;;;;;;;;;;7.70;99.90;;;;;;5092531;28;19920;-74
2023/04/07 00:37:54;;;;;;;;;;;7.70;99.90;;;;;;5092683;28;20013;-74
2023/04/07 00:40:19;;;;;;;;;;;7.70;99.90;;;;;;5110998;28;20006;-74
2023/04/07 00:42:45;;;;;;;;;;;7.70;99.90;;;;;;5092367;28;19920;-74
2023/04/07 00:45:11;;;;;;;;;;;7.70;99.90;;;;;;5092680;28;20041;-75
2023/04/07 00:47:37;;;;;;;;;;;7.70;99.90;;;;;;5127268;27;19920;-74
2023/04/07 00:50:06;;;;;;;;;;;7.70;99.90;;;;;;5092337;28;20010;-74
2023/04/07 00:52:31;;;;;;;;;;;7.70;99.90;;;;;;5092796;28;19972;-74
2023/04/07 00:54:58;;;;;;;;;;;7.70;99.90;;;;;;5110860;28;19982;-74
2023/04/07 00:57:24;;;;;;;;;;;7.70;99.90;;;;;;5092087;28;19931;-74
2023/04/07 00:59:50;;;;;;;;;;;7.70;99.90;;;;;;5088852;28;19997;-74
2023/04/07 01:02:17;;;;;;;;;;;7.70;99.90;;;;;;5090332;28;19920;-74
2023/04/07 01:04:48;;;;;;;;;;;7.70;99.90;;;;;;5088728;28;20305;-74
2023/04/07 01:07:16;;;;;;;;;;;7.70;99.90;;;;;;5088949;28;19923;-74
2023/04/07 01:09:46;;;;;;;;;;;7.70;99.90;;;;;;5088651;28;19931;-74
2023/04/07 01:12:16;;;;;;;;;;;7.70;99.90;;;;;;5071690;28;19920;-74
2023/04/07 01:14:46;;;;;;;;;;;7.70;99.90;;;;;;5088648;28;19976;-74
2023/04/07 01:17:13;;;;;;;;;;;7.70;99.90;;;;;;5088217;28;20003;-74
2023/04/07 01:19:42;;;;;;;;;;;7.70;99.90;;;;;;5088790;28;19920;-74
2023/04/07 01:22:11;;;;;;;;;;;7.70;99.90;;;;;;5088619;28;19919;-74
2023/04/07 01:24:46;;;;;;;;;;;7.60;99.90;;;;;;5083074;28;19920;-74
2023/04/07 01:27:41;;;;;;;;;;;7.70;99.90;;;;;;5122698;27;19974;-74
2023/04/07 01:30:09;;;;;;;;;;;7.60;99.90;;;;;;5018460;28;19968;-74
2023/04/07 01:32:35;;;;;;;;;;;7.60;99.90;;;;;;5087873;28;19920;-74
2023/04/07 01:35:01;;;;;;;;;;;7.70;99.90;;;;;;5122037;27;19989;-74
2023/04/07 01:37:27;;;;;;;;;;;7.60;99.90;;;;;;5088383;28;19920;-74
2023/04/07 01:39:52;;;;;;;;;;;7.60;99.90;;;;;;5087059;28;20293;-74
2023/04/07 01:42:19;;;;;;;;;;;7.60;99.90;;;;;;5088572;28;20291;-74
2023/04/07 01:44:44;;;;;;;;;;;7.70;99.90;;;;;;5122174;28;19927;-74
2023/04/07 01:47:10;;;;;;;;;;;7.60;99.90;;;;;;5087621;28;19924;-74
2023/04/07 01:49:37;;;;;;;;;;;7.60;99.90;;;;;;5085533;28;19924;-74
2023/04/07 01:52:03;;;;;;;;;;;7.60;99.90;;;;;;5083074;28;19927;-74
2023/04/07 01:54:29;;;;;;;;;;;7.60;99.90;;;;;;5089367;28;19920;-74
2023/04/07 01:56:55;;;;;;;;;;;7.60;99.90;;;;;;5088597;28;19926;-74
2023/04/07 01:59:20;;;;;;;;;;;7.60;99.90;;;;;;5121715;27;19920;-74
2023/04/07 02:01:46;;;;;;;;;;;7.60;99.90;;;;;;5087852;28;19927;-74
2023/04/07 02:04:18;;;;;;;;;;;7.60;99.90;;;;;;5088357;28;19920;-74
2023/04/07 02:06:48;;;;;;;;;;;7.60;99.90;;;;;;5087699;28;20386;-74
2023/04/07 02:09:15;;;;;;;;;;;7.60;99.90;;;;;;5110896;27;19970;-74
2023/04/07 02:11:41;;;;;;;;;;;7.50;99.90;;;;;;5121896;27;19927;-74
2023/04/07 02:14:07;;;;;;;;;;;7.50;99.90;;;;;;5122381;28;20281;-74
2023/04/07 02:16:34;;;;;;;;;;;7.50;99.90;;;;;;5089497;28;19919;-73
2023/04/07 02:19:01;;;;;;;;;;;7.50;99.90;;;;;;5087989;28;19967;-73
2023/04/07 02:21:29;;;;;;;;;;;7.50;99.90;;;;;;5121814;28;19921;-74
2023/04/07 02:23:54;;;;;;;;;;;7.50;99.90;;;;;;5087055;28;19924;-73
2023/04/07 02:26:20;;;;;;;;;;;7.60;99.90;;;;;;5088320;28;19926;-74
2023/04/07 02:28:46;;;;;;;;;;;7.60;99.90;;;;;;5120904;28;19920;-74
2023/04/07 02:31:12;;;;;;;;;;;7.60;99.90;;;;;;5086915;28;19920;-74
2023/04/07 02:33:38;;;;;;;;;;;7.60;99.90;;;;;;5120767;28;19920;-74
2023/04/07 02:36:04;;;;;;;;;;;7.60;99.90;;;;;;5121242;28;20289;-76
2023/04/07 02:38:29;;;;;;;;;;;7.60;99.90;;;;;;5086876;28;19920;-76
2023/04/07 02:40:55;;;;;;;;;;;7.60;99.90;;;;;;5087643;28;19924;-74
2023/04/07 02:43:22;;;;;;;;;;;7.60;99.90;;;;;;5088350;28;19966;-74
2023/04/07 02:45:48;;;;;;;;;;;7.60;99.90;;;;;;5087539;28;19920;-73
2023/04/07 02:48:13;;;;;;;;;;;7.60;99.90;;;;;;5091753;28;19927;-73
2023/04/07 02:50:40;;;;;;;;;;;7.60;99.90;;;;;;5091588;28;20461;-74
2023/04/07 02:53:06;;;;;;;;;;;7.50;99.90;;;;;;5091881;28;20010;-74
2023/04/07 02:55:31;;;;;;;;;;;7.50;99.90;;;;;;5091511;28;20010;-74
2023/04/07 02:57:57;;;;;;;;;;;7.60;99.90;;;;;;5091260;28;19924;-74
2023/04/07 03:00:22;;;;;;;;;;;7.60;99.90;;;;;;5109305;28;19972;-74
2023/04/07 03:02:48;;;;;;;;;;;7.50;99.90;;;;;;5112121;28;19923;-74
2023/04/07 03:05:13;;;;;;;;;;;7.50;99.90;;;;;;5111421;28;19920;-75
2023/04/07 03:07:39;;;;;;;;;;;7.50;99.90;;;;;;5112152;28;20305;-75
2023/04/07 03:10:05;;;;;;;;;;;7.50;99.90;;;;;;5111519;28;19920;-75
2023/04/07 03:12:30;;;;;;;;;;;7.50;99.90;;;;;;5111956;28;19965;-74
2023/04/07 03:14:56;;;;;;;;;;;7.50;99.90;;;;;;5111525;28;19920;-74
2023/04/07 03:17:21;;;;;;;;;;;7.50;99.90;;;;;;5111379;28;19942;-74
2023/04/07 03:19:47;;;;;;;;;;;7.50;99.90;;;;;;5111912;28;19959;-74
2023/04/07 03:22:12;;;;;;;;;;;7.50;99.90;;;;;;5112375;28;20010;-74
2023/04/07 03:24:39;;;;;;;;;;;7.50;99.90;;;;;;5111720;28;20446;-74
2023/04/07 03:27:05;;;;;;;;;;;7.50;99.90;;;;;;5128187;27;19920;-74
2023/04/07 03:29:31;;;;;;;;;;;7.60;99.90;;;;;;5093650;28;19954;-74
2023/04/07 03:31:56;;;;;;;;;;;7.50;99.90;;;;;;5112775;28;20285;-74
2023/04/07 03:34:22;;;;;;;;;;;7.50;99.90;;;;;;5112469;28;20224;-74
2023/04/07 03:36:47;;;;;;;;;;;7.50;99.90;;;;;;5094161;28;20365;-74
2023/04/07 03:39:13;;;;;;;;;;;7.50;99.90;;;;;;5093502;28;20407;-75
2023/04/07 03:41:39;;;;;;;;;;;7.50;99.90;;;;;;5112272;28;19972;-74
2023/04/07 03:44:04;;;;;;;;;;;7.60;99.90;;;;;;5093847;28;19920;-74
2023/04/07 03:46:30;;;;;;;;;;;7.60;99.90;;;;;;5093481;28;19949;-74
2023/04/07 03:48:55;;;;;;;;;;;7.60;99.90;;;;;;5093479;28;19969;-75
2023/04/07 03:51:21;;;;;;;;;;;7.60;99.90;;;;;;5112240;28;19919;-74
2023/04/07 03:53:46;;;;;;;;;;;7.60;99.90;;;;;;5093291;28;20428;-74
2023/04/07 03:56:12;;;;;;;;;;;7.60;99.90;;;;;;5092279;28;19919;-74
2023/04/07 03:58:40;;;;;;;;;;;7.60;99.90;;;;;;5111126;28;19955;-74
2023/04/07 04:01:05;;;;;;;;;;;7.60;99.90;;;;;;5093858;28;19920;-74
2023/04/07 04:03:31;;;;;;;;;;;7.60;99.90;;;;;;5093105;28;19926;-74
2023/04/07 04:05:56;;;;;;;;;;;7.50;99.90;;;;;;5111683;28;19920;-74
2023/04/07 04:08:22;;;;;;;;;;;7.60;99.90;;;;;;5110791;28;20389;-74
2023/04/07 04:10:48;;;;;;;;;;;7.60;99.90;;;;;;5093128;28;19926;-74
2023/04/07 04:13:13;;;;;;;;;;;7.60;99.90;;;;;;5111156;28;19934;-74
2023/04/07 04:15:39;;;;;;;;;;;7.60;99.90;;;;;;5092872;28;19926;-74
2023/04/07 04:18:05;;;;;;;;;;;7.60;99.90;;;;;;5093012;28;20345;-74
2023/04/07 04:20:30;;;;;;;;;;;7.50;99.90;;;;;;5092903;28;19923;-73
2023/04/07 04:22:55;;;;;;;;;;;7.60;99.90;;;;;;5093070;28;20377;-74
2023/04/07 04:25:21;;;;;;;;;;;7.50;99.90;;;;;;5092863;28;19924;-74
2023/04/07 04:27:47;;;;;;;;;;;7.50;99.90;;;;;;5093569;28;19926;-74
2023/04/07 04:30:12;;;;;;;;;;;7.50;99.90;;;;;;5126843;27;19998;-74
2023/04/07 04:32:38;;;;;;;;;;;7.50;99.90;;;;;;5093188;28;19992;-73
2023/04/07 04:35:04;;;;;;;;;;;7.50;99.90;;;;;;5092884;28;19920;-74
2023/04/07 04:37:31;;;;;;;;;;;7.50;99.90;;;;;;5110800;28;19927;-75
2023/04/07 04:39:56;;;;;;;;;;;7.50;99.90;;;;;;5110635;28;19924;-74
2023/04/07 04:42:22;;;;;;;;;;;7.50;99.90;;;;;;5092457;28;19934;-74
2023/04/07 04:44:47;;;;;;;;;;;7.50;99.90;;;;;;5126288;27;19939;-73
2023/04/07 04:47:13;;;;;;;;;;;7.50;99.90;;;;;;5110839;28;20290;-76
2023/04/07 04:49:38;;;;;;;;;;;7.50;99.90;;;;;;5092320;28;19926;-76
2023/04/07 04:52:04;;;;;;;;;;;7.50;99.90;;;;;;5110774;28;19928;-76
2023/04/07 04:54:30;;;;;;;;;;;7.50;99.90;;;;;;5092874;28;19949;-76
2023/04/07 04:56:56;;;;;;;;;;;7.50;99.90;;;;;;5126049;27;20416;-75
2023/04/07 04:59:22;;;;;;;;;;;7.50;99.90;;;;;;5126223;27;19923;-76
2023/04/07 05:01:47;;;;;;;;;;;7.50;99.90;;;;;;5092279;28;19928;-75
2023/04/07 05:04:13;;;;;;;;;;;7.50;99.90;;;;;;5092432;28;19920;-75
2023/04/07 05:06:38;;;;;;;;;;;7.60;99.90;;;;;;5110549;28;19976;-76
2023/04/07 05:09:04;;;;;;;;;;;7.50;99.90;;;;;;5092063;28;19919;-74
2023/04/07 05:11:29;;;;;;;;;;;7.50;99.90;;;;;;5074973;28;19920;-73
2023/04/07 05:13:55;;;;;;;;;;;7.50;99.90;;;;;;5091725;28;19923;-74
2023/04/07 05:16:20;;;;;;;;;;;7.60;99.90;;;;;;5092231;28;19919;-74
2023/04/07 05:18:46;;;;;;;;;;;7.60;99.90;;;;;;5091963;28;19920;-74
2023/04/07 05:21:11;;;;;;;;;;;7.50;99.90;;;;;;5074974;28;19927;-74
2023/04/07 05:23:37;;;;;;;;;;;7.50;99.90;;;;;;5090987;28;19923;-74
2023/04/07 05:26:03;;;;;;;;;;;7.50;99.90;;;;;;5110198;28;20285;-74
2023/04/07 05:28:28;;;;;;;;;;;7.50;99.90;;;;;;5102224;28;19920;-74
2023/04/07 05:30:54;;;;;;;;;;;7.50;99.90;;;;;;5109582;28;19920;-76
2023/04/07 05:33:19;;;;;;;;;;;7.50;99.90;;;;;;5109948;28;19924;-74
2023/04/07 05:35:45;;;;;;;;;;;7.60;99.90;;;;;;5109672;28;19928;-74
2023/04/07 05:38:11;;;;;;;;;;;7.60;99.90;;;;;;5110094;28;19978;-74
2023/04/07 05:40:36;;;;;;;;;;;7.60;99.90;;;;;;5110248;28;19919;-74
2023/04/07 05:43:02;;;;;;;;;;;7.60;99.90;;;;;;5109462;28;19934;-74
2023/04/07 05:45:28;;;;;;;;;;;7.60;99.90;;;;;;5109658;28;19924;-74
2023/04/07 05:47:53;;;;;;;;;;;7.60;99.90;;;;;;5109364;28;19934;-74
2023/04/07 05:50:19;;;;;;;;;;;7.60;99.90;;;;;;5091531;28;19942;-74
2023/04/07 05:52:45;;;;;;;;;;;7.70;99.90;;;;;;5110005;28;19919;-74
2023/04/07 05:55:11;;;;;;;;;;;7.70;99.90;;;;;;5125887;28;19942;-74
2023/04/07 05:57:36;;;;;;;;;;;7.70;99.90;;;;;;5109626;28;19971;-74
2023/04/07 06:00:03;;;;;;;;;;;7.70;99.90;;;;;;5108829;28;20018;-74
2023/04/07 06:02:28;;;;;;;;;;;7.70;99.90;;;;;;5074860;28;19926;-74
2023/04/07 06:04:55;;;;;;;;;;;7.80;99.90;;;;;;5109289;28;19928;-74
2023/04/07 06:07:20;;;;;;;;;;;7.80;99.90;;;;;;5091929;28;20004;-75
2023/04/07 06:09:46;;;;;;;;;;;7.80;99.90;;;;;;5109325;28;20016;-74
2023/04/07 06:12:12;;;;;;;;;;;7.80;99.90;;;;;;5108572;28;20286;-74
2023/04/07 06:14:38;;;;;;;;;;;7.80;99.90;;;;;;5091381;28;20353;-73
2023/04/07 06:17:03;;;;;;;;;;;7.80;99.90;;;;;;5091081;28;19919;-74
2023/04/07 06:19:29;;;;;;;;;;;7.90;99.90;;;;;;5110016;28;19920;-74
2023/04/07 06:21:54;;;;;;;;;;;7.90;99.90;;;;;;5113287;28;20034;-74
2023/04/07 06:24:24;;;;;;;;;;;7.90;99.90;;;;;;5094997;28;19920;-73
2023/04/07 06:26:50;;;;;;;;;;;7.90;99.90;;;;;;5129177;27;19960;-74
2023/04/07 06:29:16;;;;;;;;;;;7.90;99.90;;;;;;5094883;28;20080;-74
2023/04/07 06:31:41;;;;;;;;;;;8.00;99.90;;;;;;5095241;28;20006;-74
2023/04/07 06:34:07;;;;;;;;;;;8.00;99.90;;;;;;5094948;28;19958;-74
2023/04/07 06:36:33;;;;;;;;;;;8.00;99.90;;;;;;5093275;28;19955;-74
2023/04/07 06:38:59;;;;;;;;;;;8.00;99.90;;;;;;5109270;28;19993;-75
2023/04/07 06:41:24;;;;;;;;;;;8.00;99.90;;;;;;5126691;27;19990;-74
2023/04/07 06:43:50;;;;;;;;;;;8.00;99.90;;;;;;5110752;28;19931;-74
2023/04/07 06:46:16;;;;;;;;;;;8.00;99.90;;;;;;5106060;28;20048;-74
2023/04/07 06:48:41;;;;;;;;;;;8.00;99.90;;;;;;5127566;27;19931;-74
2023/04/07 06:51:07;;;;;;;;;;;8.10;99.90;;;;;;5111689;28;19926;-74
2023/04/07 06:53:33;;;;;;;;;;;8.10;99.90;;;;;;5109272;28;19928;-76
2023/04/07 06:56:16;;;;;;;;;;;8.10;99.90;;;;;;5092413;28;19926;-76
2023/04/07 06:58:42;;;;;;;;;;;8.10;99.90;;;;;;5092840;28;19920;-75
2023/04/07 07:01:07;;;;;;;;;;;8.10;99.90;;;;;;5111615;28;19924;-75
2023/04/07 07:03:33;;;;;;;;;;;8.20;99.90;;;;;;5111429;28;19923;-76
2023/04/07 07:05:59;;;;;;;;;;;8.20;99.90;;;;;;5093485;28;20008;-76
2023/04/07 07:08:25;;;;;;;;;;;8.20;99.90;;;;;;5112268;28;19935;-74
2023/04/07 07:10:51;;;;;;;;;;;8.20;99.90;;;;;;5112727;28;20037;-73
2023/04/07 07:13:22;;;;;;;;;;;8.20;99.90;;;;;;5112335;28;20379;-72
2023/04/07 07:15:48;;;;;;;;;;;8.20;99.90;;;;;;5093690;28;19924;-73
2023/04/07 07:18:14;;;;;;;;;;;8.20;99.90;;;;;;5112445;28;19969;-73
2023/04/07 07:20:39;;;;;;;;;;;8.20;99.90;;;;;;5112486;27;19927;-74
2023/04/07 07:23:05;;;;;;;;;;;8.20;99.90;;;;;;5112306;27;19934;-74
2023/04/07 07:25:31;;;;;;;;;;;8.20;99.90;;;;;;5112417;28;19924;-74
2023/04/07 07:27:56;;;;;;;;;;;8.20;99.90;;;;;;5093843;28;19920;-73
2023/04/07 07:30:22;;;;;;;;;;;8.20;99.90;;;;;;5094497;28;20018;-74
2023/04/07 07:32:48;;;;;;;;;;;8.30;99.90;;;;;;5113547;27;20300;-74
2023/04/07 07:35:14;;;;;;;;;;;8.30;99.90;;;;;;5112243;28;19920;-75
2023/04/07 07:37:40;;;;;;;;;;;8.30;99.90;;;;;;5118303;27;19924;-74
2023/04/07 07:40:06;;;;;;;;;;;8.30;99.90;;;;;;5114031;27;19919;-74
2023/04/07 07:42:32;;;;;;;;;;;8.40;99.90;;;;;;5112640;27;19970;-75
2023/04/07 07:44:57;;;;;;;;;;;8.40;99.90;;;;;;5093498;28;20393;-75
2023/04/07 07:47:23;;;;;;;;;;;8.40;99.90;;;;;;5111886;27;20282;-76
2023/04/07 07:49:49;;;;;;;;;;;8.50;99.90;;;;;;5126521;27;20031;-76
2023/04/07 07:52:15;;;;;;;;;;;8.50;99.90;;;;;;5114427;27;20339;-76
2023/04/07 07:54:40;;;;;;;;;;;8.60;99.90;;;;;;5118731;27;19920;-76
2023/04/07 07:57:06;;;;;;;;;;;8.60;99.90;;;;;;5094288;28;19969;-75
2023/04/07 07:59:31;;;;;;;;;;;8.70;99.90;;;;;;5133387;27;19927;-76
2023/04/07 08:01:57;;;;;;;;;;;8.70;99.90;;;;;;5092534;28;20416;-76
2023/04/07 08:04:23;;;;;;;;;;;8.70;99.90;;;;;;5091436;28;20039;-74
2023/04/07 08:06:52;;;;;;;;;;;8.80;99.90;;;;;;5091956;27;19934;-76
2023/04/07 08:09:18;;;;;;;;;;;9.00;99.90;;;;;;5089256;28;20006;-74
2023/04/07 08:11:44;;;;;;;;;;;9.00;99.90;;;;;;5125537;27;20373;-74
2023/04/07 08:14:10;;;;;;;;;;;9.10;99.90;;;;;;5092387;28;19920;-74
2023/04/07 08:16:35;;;;;;;;;;;9.20;99.90;;;;;;5126012;27;19919;-74
2023/04/07 08:19:01;;;;;;;;;;;9.20;99.90;;;;;;5084925;27;22053;-73
2023/04/07 08:21:27;;;;;;;;;;;9.30;99.90;;;;;;5092532;28;20331;-74
2023/04/07 08:23:53;;;;;;;;;;;9.40;99.90;;;;;;5090753;27;19934;-73
2023/04/07 08:26:20;;;;;;;;;;;9.40;99.90;;;;;;5128382;27;20288;-72
2023/04/07 08:28:45;;;;;;;;;;;9.50;99.90;;;;;;5137425;27;19928;-72
2023/04/07 08:31:11;;;;;;;;;;;9.70;99.90;;;;;;5124877;27;19924;-73
2023/04/07 08:33:36;;;;;;;;;;;9.70;99.90;;;;;;5092171;28;19924;-73
2023/04/07 08:36:02;;;;;;;;;;;9.80;99.90;;;;;;5111232;28;19955;-73
2023/04/07 08:38:28;;;;;;;;;;;9.90;99.90;;;;;;5091124;28;20018;-73
2023/04/07 08:41:15;;;;;;;;;;;10.00;99.90;;;;;;5092321;28;19959;-73
2023/04/07 08:43:42;;;;;;;;;;;10.10;99.90;;;;;;5092078;28;19920;-74
2023/04/07 08:46:08;;;;;;;;;;;10.20;99.90;;;;;;5110170;27;19919;-75
2023/04/07 08:48:35;;;;;;;;;;;10.40;99.90;;;;;;5092827;28;20006;-74
2023/04/07 08:51:05;;;;;;;;;;;10.50;99.90;;;;;;5091062;28;19923;-74
2023/04/07 08:53:34;;;;;;;;;;;10.60;99.90;;;;;;5110967;27;19927;-74
2023/04/07 08:56:00;;;;;;;;;;;10.60;99.90;;;;;;5098762;28;19919;-73
2023/04/07 08:58:27;;;;;;;;;;;10.70;99.90;;;;;;5123336;27;19928;-74
2023/04/07 09:00:52;;;;;;;;;;;10.70;99.90;;;;;;5096854;27;20007;-74
2023/04/07 09:03:18;;;;;;;;;;;10.80;99.90;;;;;;5095581;28;20010;-74
2023/04/07 09:05:45;;;;;;;;;;;10.90;99.90;;;;;;5104666;27;19919;-74
2023/04/07 09:08:11;;;;;;;;;;;10.90;99.90;;;;;;5129148;27;19932;-74
2023/04/07 09:10:37;;;;;;;;;;;11.00;99.90;;;;;;5092513;28;19919;-74
2023/04/07 09:13:02;;;;;;;;;;;11.00;99.90;;;;;;5113145;27;19920;-75
2023/04/07 09:15:31;;;;;;;;;;;11.00;99.90;;;;;;5091457;28;20533;-74
2023/04/07 09:17:57;;;;;;;;;;;11.10;99.90;;;;;;5125629;27;19919;-74
2023/04/07 09:20:23;;;;;;;;;;;11.20;99.90;;;;;;5074197;28;19970;-74
2023/04/07 09:22:49;;;;;;;;;;;11.50;99.90;;;;;;5110070;28;19919;-75
2023/04/07 09:25:21;;;;;;;;;;;11.90;99.90;;;;;;5091532;28;19927;-75
2023/04/07 09:28:01;;;;;;;;;;;12.40;99.90;;;;;;5126167;27;19998;-75
2023/04/07 09:30:27;;;;;;;;;;;12.70;99.90;;;;;;5117930;27;19959;-75
2023/04/07 09:32:53;;;;;;;;;;;13.00;99.90;;;;;;5109276;28;19924;-75
2023/04/07 09:35:21;;;;;;;;;;;13.50;99.90;;;;;;5110316;28;19943;-75
2023/04/07 09:38:06;;;;;;;;;;;13.70;99.90;;;;;;5117582;27;19973;-75
2023/04/07 09:40:32;;;;;;;;;;;13.90;99.90;;;;;;5103284;28;19924;-75
2023/04/07 09:42:57;;;;;;;;;;;14.10;99.90;;;;;;5112179;28;19944;-75
2023/04/07 09:45:24;;;;;;;;;;;14.30;99.90;;;;;;5113134;27;19964;-75
2023/04/07 09:47:50;;;;;;;;;;;14.50;99.90;;;;;;5109761;28;19923;-75
2023/04/07 09:50:29;;;;;;;;;;;14.80;99.90;;;;;;5109913;28;19919;-75
2023/04/07 09:52:54;;;;;;;;;;;15.10;99.90;;;;;;5109860;28;20014;-75
2023/04/07 09:55:21;;;;;;;;;;;15.30;99.90;;;;;;5093923;28;20010;-75
2023/04/07 09:57:52;;;;;;;8.98;7.30;;;15.50;99.90;;;;;;5119357;27;19919;-75
2023/04/07 10:00:17;;;;;;;8.27;7.38;;;15.70;99.90;;;;;;5093943;28;20067;-75
2023/04/07 10:02:43;;;;;;;9.90;7.88;;;15.80;99.90;;;;;;5100193;28;20047;-75
2023/04/07 10:05:09;;;;;;;;;;;15.80;99.90;;;;;;5118439;27;20055;-75
2023/04/07 10:07:35;;;;;;;;;;;16.00;99.90;;;;;;5120177;27;19927;-75
2023/04/07 10:10:01;;;;;;;;;;;15.60;99.90;;;;;;5115250;27;19927;-75
2023/04/07 10:12:27;;;;;;;;;;;15.20;99.90;;;;;;5095465;28;19927;-75
2023/04/07 10:14:54;;;;;;;7.32;6.20;;;15.30;99.90;;;;;;5094500;28;19920;-75
2023/04/07 10:17:21;;;;;;;8.23;7.43;;;15.60;99.90;;;;;;5097495;27;20929;-75
2023/04/07 10:19:48;;;;;;;8.57;7.70;;;15.80;99.90;;;;;;5110966;27;21328;-75
2023/04/07 10:22:15;;;;;;;8.07;7.28;;;16.20;99.90;;;;;;5123193;27;20415;-75
2023/04/07 10:24:45;;;;;;;8.50;7.68;;;16.60;99.90;;;;;;5130718;27;20431;-76
2023/04/07 10:27:16;;;;;;;8.95;7.88;;;17.00;99.90;;;;;;5114891;27;20488;-75
2023/04/07 10:29:45;;;;;;;8.80;7.82;;;17.10;99.60;;;;;;5109806;28;20384;-75
2023/04/07 10:32:11;;;;;;;10.38;8.02;;;17.10;99.90;;;;;;5091805;28;21175;-75
2023/04/07 10:34:49;;;;;;;8.80;7.60;;;17.40;99.00;;;;;;5113078;27;20127;-75
2023/04/07 10:37:21;;;;;;;8.95;7.57;;;17.40;98.50;;;;;;5094567;27;20521;-75
2023/04/07 10:39:48;;;;;;;8.40;7.50;;;17.60;98.60;;;;;;5084887;28;20040;-75
2023/04/07 10:42:35;;;;;;;9.43;8.05;;;17.70;94.10;;;;;;5111022;28;20462;-75
2023/04/07 10:45:02;;;;;;;9.52;8.52;;;17.30;96.30;;;;;;5110050;28;20413;-74
2023/04/07 10:47:28;;;;;;;8.75;7.80;;;16.60;95.80;;;;;;5109914;27;20419;-75
2023/04/07 10:50:17;;;;;;;10.30;8.43;;;16.20;98.00;;;;;;5092746;28;20408;-74
2023/04/07 10:52:44;;;;;;;9.07;8.18;;;16.50;98.60;;;;;;5110959;28;20483;-75
2023/04/07 10:55:29;;;;;;;9.70;8.73;;;17.00;97.20;;;;;;5110378;28;20416;-75
2023/04/07 10:58:24;;;;;;;;;;;17.40;95.70;;;;;;5106004;28;20075;-75
2023/04/07 11:00:56;;;;;;;9.57;8.57;;;17.70;95.20;;;;;;5097287;28;20105;-75
2023/04/07 11:03:23;;;;;;;258.35;38.70;;;17.90;93.90;;;;;;5125648;27;20507;-75
2023/04/07 11:05:49;;;;;;;273.15;37.75;;;17.80;95.50;;;;;;5093456;28;20473;-75
2023/04/07 11:08:15;;;;;;;12.88;9.07;;;18.00;92.90;;;;;;5092095;28;20758;-75
2023/04/07 11:10:46;;;;;;;48.50;13.30;;;18.10;91.60;;;;;;5111288;28;20415;-75
2023/04/07 11:13:12;;;;;;;9.52;8.43;;;18.20;92.90;;;;;;5111220;28;20408;-75
2023/04/07 11:15:38;;;;;;;25.37;10.30;;;18.40;91.40;;;;;;5111105;28;20735;-75
2023/04/07 11:18:17;;;;;;;116.85;20.02;;;18.60;91.50;;;;;;5111882;28;20705;-75
2023/04/07 11:20:45;;;;;;;;;;;18.90;89.80;;;;;;5094444;28;20051;-75
2023/04/07 11:23:12;;;;;;;9.65;8.20;;;19.10;87.40;;;;;;5110565;28;20385;-75
2023/04/07 11:25:39;;;;;;;90.55;19.05;;;19.00;84.00;;;;;;5090673;28;20400;-75
2023/04/07 11:28:05;;;;;;;10.68;8.60;;;19.20;82.50;;;;;;5091981;28;20066;-75
2023/04/07 11:30:30;;;;;;;13.55;8.32;;;19.30;80.90;;;;;;5075087;28;20035;-75
2023/04/07 11:32:56;;;;;;;12.38;9.07;;;19.40;78.60;;;;;;5110148;28;20040;-77
2023/04/07 11:35:22;;;;;;;11.60;8.60;;;19.30;74.90;;;;;;5109897;28;20104;-74
2023/04/07 11:37:48;;;;;;;9.70;8.60;;;19.30;79.10;;;;;;5110365;28;20046;-75
2023/04/07 11:40:34;;;;;;;393.05;50.58;;;19.40;76.60;;;;;;5111442;28;20047;-74
2023/04/07 11:43:01;;;;;;;;;;;19.40;77.20;;;;;;5098944;28;20039;-75
2023/04/07 11:45:26;;;;;;;29.20;10.43;;;19.20;77.80;;;;;;5114588;27;19955;-74
2023/04/07 11:47:52;;;;;;;39.33;12.52;;;19.00;76.00;;;;;;5119003;27;20448;-75
2023/04/07 11:50:40;;;;;;;11.13;9.00;;;18.80;77.90;;;;;;5096396;28;20432;-74
2023/04/07 11:53:06;;;;;;;12.80;9.20;;;18.30;76.50;;;;;;5098884;27;20950;-74
2023/04/07 11:55:32;;;;;;;90.15;18.73;;;17.90;80.50;;;;;;5108355;27;20408;-74
2023/04/07 11:58:10;;;;;;;12.57;9.43;;;17.60;82.60;;;;;;5114021;27;20453;-75
2023/04/07 12:00:53;;;;;;;12.63;10.10;;;17.40;83.10;;;;;;5112288;27;20511;-74
2023/04/07 12:03:19;;;;;;;18.67;10.07;;;17.30;83.90;;;;;;5095229;27;20427;-75
2023/04/07 12:05:45;;;;;;;13.13;10.30;;;17.50;81.70;;;;;;5091416;28;20412;-74
2023/04/07 12:08:12;;;;;;;210.82;35.30;;;17.40;80.60;;;;;;5095832;28;20420;-75
2023/04/07 12:10:40;;;;;;;12.65;9.68;;;17.20;79.90;;;;;;5097887;27;20454;-74
2023/04/07 12:13:07;;;;;;;158.63;25.77;;;17.30;81.60;;;;;;5077012;28;20420;-74
2023/04/07 12:15:33;;;;;;;32.88;12.25;;;17.70;80.80;;;;;;5097021;27;20411;-74
2023/04/07 12:17:59;;;;;;;14.50;10.55;;;17.70;81.90;;;;;;5096214;28;20478;-74
2023/04/07 12:20:26;;;;;;;12.82;10.60;;;17.30;74.60;;;;;;5094322;27;20474;-74
2023/04/07 12:22:51;;;;;;;13.60;10.15;;;17.20;77.00;;;;;;5092468;28;20481;-74
2023/04/07 12:25:17;;;;;;;12.50;10.63;;;17.20;76.50;;;;;;5090992;28;20440;-75
2023/04/07 12:27:42;;;;;;;13.15;10.02;;;17.30;77.50;;;;;;5109782;27;20929;-74
2023/04/07 12:30:08;;;;;;;12.00;10.23;;;17.30;76.80;;;;;;5117201;27;20448;-75
2023/04/07 12:32:34;;;;;;;15.43;10.30;;;17.30;74.00;;;;;;5112265;27;20808;-74
2023/04/07 12:35:00;;;;;;;137.90;24.13;;;17.30;75.50;;;;;;5108807;28;20488;-74
2023/04/07 12:37:26;;;;;;;13.75;11.18;;;17.50;75.50;;;;;;5108802;28;20413;-74
2023/04/07 12:39:51;;;;;;;250.38;37.70;;;17.40;74.30;;;;;;5091143;28;20426;-74
2023/04/07 12:42:17;;;;;;;14.00;10.73;;;17.20;75.00;;;;;;5107475;27;20404;-74
2023/04/07 12:44:43;;;;;;;15.50;10.97;;;17.30;72.70;;;;;;5091039;28;20455;-75
2023/04/07 12:47:11;;;;;;;37.57;13.10;;;17.70;72.20;;;;;;5117873;27;20452;-74
2023/04/07 12:49:36;;;;;;;25.13;11.90;;;17.80;72.50;;;;;;5090543;28;20449;-74
2023/04/07 12:52:02;;;;;;;14.00;10.37;;;17.70;69.30;;;;;;5118734;27;20411;-74
2023/04/07 12:54:29;;;;;;;14.23;11.00;;;17.60;70.70;;;;;;5109461;28;20478;-74
2023/04/07 12:56:56;;;;;;;30.40;12.10;;;17.60;70.10;;;;;;5114747;27;20424;-74
2023/04/07 12:59:22;;;;;;;43.50;14.75;;;17.50;71.60;;;;;;5108000;27;20464;-74
2023/04/07 13:01:48;;;;;;;15.50;11.35;;;17.20;69.90;;;;;;5114099;27;20487;-74
2023/04/07 13:04:16;;;;;;;15.93;10.85;;;16.90;72.20;;;;;;5090797;28;20470;-74
2023/04/07 13:06:42;;;;;;;16.37;10.73;;;16.80;72.90;;;;;;5076266;28;20511;-74
2023/04/07 13:09:08;;;;;;;16.45;11.18;;;16.80;71.70;;;;;;5099213;28;20969;-74
2023/04/07 13:11:34;;;;;;;13.13;10.07;;;16.80;72.10;;;;;;5108894;27;20413;-74
2023/04/07 13:14:00;;;;;;;13.63;10.70;;;17.30;71.40;;;;;;5108083;28;20404;-74
2023/04/07 13:16:26;;;;;;;15.48;11.15;;;17.60;68.90;;;;;;5106701;27;20442;-74
2023/04/07 13:18:52;;;;;;;14.83;10.40;;;17.40;64.40;;;;;;5107596;28;20544;-74
2023/04/07 13:21:17;;;;;;;13.65;10.40;;;17.20;66.10;;;;;;5107052;28;20460;-75
2023/04/07 13:23:43;;;;;;;13.70;10.75;;;17.20;66.40;;;;;;5123406;27;20519;-73
2023/04/07 13:26:09;;;;;;;19.43;10.77;;;17.70;67.30;;;;;;5114143;27;20477;-73
2023/04/07 13:28:35;;;;;;;15.70;10.73;;;18.60;66.40;;;;;;5097538;28;20769;-73
2023/04/07 13:31:00;;;;;;;13.50;10.43;;;19.20;64.90;;;;;;5106785;28;20497;-73
2023/04/07 13:33:26;;;;;;;15.27;10.50;;;19.10;60.00;;;;;;5107239;28;20412;-74
2023/04/07 13:35:51;;;;;;;14.57;10.40;;;19.30;61.10;;;;;;5089197;28;20415;-74
2023/04/07 13:38:17;;;;;;;14.23;10.57;;;19.20;58.90;;;;;;5087817;28;20404;-74
2023/04/07 13:40:43;;;;;;;14.10;10.57;;;19.00;61.00;;;;;;5087354;28;20495;-74
2023/04/07 13:43:11;;;;;;;14.63;10.20;;;19.40;58.20;;;;;;5106311;28;20482;-74
2023/04/07 13:45:36;;;;;;;13.40;9.60;;;19.90;56.00;;;;;;5105344;28;20440;-74
2023/04/07 13:48:02;;;;;;;14.60;9.93;;;20.10;57.00;;;;;;5106431;28;20480;-74
2023/04/07 13:50:28;;;;;;;51.38;14.13;;;20.20;53.60;;;;;;5088253;28;20408;-74
2023/04/07 13:52:54;;;;;;;15.03;10.10;;;20.30;56.30;;;;;;5089484;28;21810;-74